Terminal Aerodrome Forecast
Issued by NWS

Home | Current Version | Previous Version | Text Only | Print | Product List | Glossary On
Versions: 1 2 3 4 5 6 7 8 9 10 11 12 13 14 15 16
663
FTUS41 KPBZ 102340
TAFFKL
TAF
KFKL 102340Z 1100/1124 24005KT P6SM VCSH OVC050
     FM110600 21005KT P6SM VCSH OVC050
     FM110800 17003KT 2SM -SN OVC015
     FM110900 16005KT 1 1/2SM -SN OVC007
     FM112300 15009KT 5SM -SN OVC015
      AMD NOT SKED=

USA.gov is the U.S. government's official web portal to all federal, state and local government web resources and services.